createdAt,value
2019-01-02T00:00:37.378Z,100809.99
2019-01-02T00:03:06.339Z,100802.98
2019-01-02T00:05:35.502Z,100804.13
2019-01-02T00:08:04.885Z,100803.13
2019-01-02T00:10:33.944Z,100823.27
2019-01-02T00:13:02.788Z,100831.89
2019-01-02T00:15:31.843Z,100842.91
2019-01-02T00:18:00.534Z,100834.60
2019-01-02T00:20:29.292Z,100832.48
2019-01-02T00:22:58.877Z,100828.15
2019-01-02T00:25:27.908Z,100833.77
2019-01-02T00:27:57.055Z,100833.01
2019-01-02T00:30:25.819Z,100843.34
2019-01-02T00:32:54.779Z,100850.75
2019-01-02T00:35:23.468Z,100851.88
2019-01-02T00:37:52.609Z,100853.89
2019-01-02T00:40:21.375Z,100840.91
2019-01-02T00:42:50.719Z,100827.58
2019-01-02T00:45:22.377Z,100831.37
2019-01-02T00:47:49.891Z,100834.36
2019-01-02T00:50:18.586Z,100838.09
2019-01-02T00:52:47.279Z,100845.45
2019-01-02T00:55:15.967Z,100849.48
2019-01-02T00:57:44.667Z,100856.17
2019-01-02T01:00:20.225Z,100846.60
2019-01-02T01:02:49.552Z,100862.40
2019-01-02T01:05:18.425Z,100869.61
2019-01-02T01:07:47.751Z,100861.43
2019-01-02T01:10:17.863Z,100856.45
2019-01-02T01:12:47.021Z,100871.00
2019-01-02T01:15:16.131Z,100868.70
2019-01-02T01:17:45.204Z,100868.92
2019-01-02T01:20:16.235Z,100871.15
2019-01-02T01:22:46.575Z,100880.14
2019-01-02T01:25:15.584Z,100879.04
2019-01-02T01:27:44.342Z,100876.30
2019-01-02T01:30:13.314Z,100873.49
2019-01-02T01:32:42.082Z,100875.28
2019-01-02T01:35:13.150Z,100878.61
2019-01-02T01:37:46.284Z,100880.28
2019-01-02T01:40:15.182Z,100885.11
2019-01-02T01:42:45.354Z,100886.24
2019-01-02T01:45:14.116Z,100898.01
2019-01-02T01:47:42.879Z,100899.29
2019-01-02T01:50:11.921Z,100901.88
2019-01-02T01:52:40.621Z,100902.87
2019-01-02T01:55:09.293Z,100907.10
2019-01-02T01:57:38.242Z,100910.36
2019-01-02T02:00:11.041Z,100923.30
2019-01-02T02:02:40.199Z,100925.93
2019-01-02T02:05:09.263Z,100918.19
2019-01-02T02:07:38.090Z,100930.39
2019-01-02T02:10:09.804Z,100934.91
2019-01-02T02:12:38.560Z,100940.44
2019-01-02T02:15:09.044Z,100936.59
2019-01-02T02:17:38.015Z,100943.20
2019-01-02T02:20:08.531Z,100951.09
2019-01-02T02:22:37.580Z,100944.08
2019-01-02T02:25:08.148Z,100954.35
2019-01-02T02:27:37.188Z,100943.04
2019-01-02T02:30:07.671Z,100942.02
2019-01-02T02:32:36.360Z,100949.19
2019-01-02T02:35:05.256Z,100950.69
2019-01-02T02:37:33.945Z,100950.38
2019-01-02T02:40:02.958Z,100952.59
2019-01-02T02:42:31.708Z,100953.48
2019-01-02T02:45:00.758Z,100950.86
2019-01-02T02:47:29.831Z,100961.31
2019-01-02T02:49:58.993Z,100953.70
2019-01-02T02:52:27.720Z,100949.23
2019-01-02T02:54:56.729Z,100960.02
2019-01-02T02:57:25.473Z,100958.73
2019-01-02T02:59:54.163Z,100957.50
2019-01-02T03:02:22.924Z,100949.44
2019-01-02T03:04:51.692Z,100950.39
2019-01-02T03:07:20.768Z,100950.73
2019-01-02T03:09:49.783Z,100955.11
2019-01-02T03:12:18.855Z,100953.39
2019-01-02T03:14:47.667Z,100952.18
2019-01-02T03:17:16.360Z,100951.44
2019-01-02T03:19:45.846Z,100956.69
2019-01-02T03:22:14.781Z,100954.56
2019-01-02T03:24:43.753Z,100953.69
2019-01-02T03:27:12.792Z,100954.41
2019-01-02T03:29:42.910Z,100955.01
2019-01-02T03:32:11.971Z,100951.53
2019-01-02T03:34:41.036Z,100957.91
2019-01-02T03:37:09.906Z,100944.39
2019-01-02T03:39:38.594Z,100944.86
2019-01-02T03:42:07.302Z,100957.69
2019-01-02T03:44:36.083Z,100955.34
2019-01-02T03:47:04.828Z,100949.64
2019-01-02T03:49:33.595Z,100945.19
2019-01-02T03:52:02.350Z,100944.82
2019-01-02T03:54:31.411Z,100934.48
2019-01-02T03:57:00.173Z,100943.64
2019-01-02T03:59:28.852Z,100939.95
2019-01-02T04:01:57.601Z,100943.73
2019-01-02T04:04:26.400Z,100948.63
2019-01-02T04:06:55.751Z,100951.39
2019-01-02T04:09:24.446Z,100950.15
2019-01-02T04:11:53.206Z,100952.75
2019-01-02T04:14:21.956Z,100960.00
2019-01-02T04:16:50.636Z,100956.59
2019-01-02T04:19:19.338Z,100965.42
2019-01-02T04:21:48.016Z,100961.85
2019-01-02T04:24:17.201Z,100972.16
2019-01-02T04:26:45.873Z,100964.87
2019-01-02T04:29:14.616Z,100966.66
2019-01-02T04:31:43.663Z,100969.25
2019-01-02T04:34:12.635Z,100971.41
2019-01-02T04:36:41.319Z,100970.47
2019-01-02T04:39:10.368Z,100961.55
2019-01-02T04:41:39.047Z,100956.90
2019-01-02T04:44:07.797Z,100959.36
2019-01-02T04:46:37.482Z,100962.80
2019-01-02T04:49:06.161Z,100962.42
2019-01-02T04:51:34.858Z,100960.57
2019-01-02T04:54:03.550Z,100952.61
2019-01-02T04:56:32.315Z,100958.75
2019-01-02T04:59:01.244Z,100957.41
2019-01-02T05:01:30.186Z,100958.85
2019-01-02T05:03:59.294Z,100949.27
2019-01-02T05:06:28.026Z,100959.80
2019-01-02T05:08:56.750Z,100958.30
2019-01-02T05:11:25.420Z,100955.66
2019-01-02T05:13:54.126Z,100946.41
2019-01-02T05:16:22.873Z,100957.60
2019-01-02T05:18:51.553Z,100948.49
2019-01-02T05:21:20.239Z,100952.88
2019-01-02T05:23:48.990Z,100947.59
2019-01-02T05:26:18.883Z,100957.32
2019-01-02T05:28:47.568Z,100953.72
2019-01-02T05:31:16.317Z,100956.79
2019-01-02T05:33:45.018Z,100956.82
2019-01-02T05:36:13.738Z,100945.49
2019-01-02T05:38:42.746Z,100947.48
2019-01-02T05:41:11.455Z,100950.75
2019-01-02T05:43:40.145Z,100953.38
2019-01-02T05:46:09.223Z,100955.44
2019-01-02T05:48:37.989Z,100963.36
2019-01-02T05:51:07.087Z,100964.95
2019-01-02T05:53:36.430Z,100973.34
2019-01-02T05:56:05.183Z,100971.56
2019-01-02T05:58:33.880Z,100983.33
2019-01-02T06:01:02.631Z,100974.03
2019-01-02T06:03:31.701Z,100974.07
2019-01-02T06:06:00.617Z,100979.05
2019-01-02T06:08:30.156Z,100977.95
2019-01-02T06:10:58.854Z,100980.55
2019-01-02T06:13:27.525Z,100981.55
2019-01-02T06:15:56.226Z,100982.30
2019-01-02T06:18:25.197Z,100976.41
2019-01-02T06:20:53.941Z,100978.01
2019-01-02T06:23:22.874Z,100975.95
2019-01-02T06:25:51.645Z,100980.60
2019-01-02T06:28:20.411Z,100989.03
2019-01-02T06:30:49.445Z,100989.09
2019-01-02T06:33:18.130Z,100991.38
2019-01-02T06:35:46.836Z,101001.11
2019-01-02T06:38:15.593Z,100997.98
2019-01-02T06:40:45.098Z,100996.13
2019-01-02T06:43:13.826Z,101004.76
2019-01-02T06:45:42.885Z,101013.77
2019-01-02T06:48:11.574Z,100998.38
2019-01-02T06:50:40.313Z,101012.53
2019-01-02T06:53:09.449Z,101007.08
2019-01-02T06:55:38.133Z,101001.19
2019-01-02T06:58:06.896Z,101010.56
2019-01-02T07:00:38.726Z,101007.09
2019-01-02T07:03:07.467Z,101010.77
2019-01-02T07:05:36.243Z,101010.06
2019-01-02T07:08:05.001Z,101013.50
2019-01-02T07:10:33.699Z,101019.30
2019-01-02T07:13:02.433Z,101025.64
2019-01-02T07:15:31.166Z,101024.80
2019-01-02T07:17:59.907Z,101031.61
2019-01-02T07:20:28.580Z,101031.88
2019-01-02T07:22:57.285Z,101037.63
2019-01-02T07:25:25.983Z,101046.19
2019-01-02T07:27:55.007Z,101049.33
2019-01-02T07:30:25.027Z,101054.06
2019-01-02T07:32:53.844Z,101060.90
2019-01-02T07:35:54.679Z,101048.22
2019-01-02T07:39:22.887Z,101061.95
2019-01-02T07:42:20.218Z,101057.46
2019-01-02T07:45:26.365Z,101070.72
2019-01-02T07:48:40.542Z,101071.27
2019-01-02T07:51:46.617Z,101083.45
2019-01-02T07:55:14.956Z,101080.53
2019-01-02T07:58:23.564Z,101086.38
2019-01-02T08:01:39.394Z,101083.14
2019-01-02T08:05:07.728Z,101091.50
2019-01-02T08:08:21.171Z,101083.66
2019-01-02T08:11:38.962Z,101092.97
2019-01-02T08:14:55.628Z,101099.08
2019-01-02T08:18:11.544Z,101101.72
2019-01-02T08:21:08.628Z,101110.02
2019-01-02T08:24:18.519Z,101109.20
2019-01-02T08:27:28.764Z,101112.58
2019-01-02T08:30:38.294Z,101121.73
2019-01-02T08:33:23.912Z,101121.83
2019-01-02T08:36:43.282Z,101120.84
2019-01-02T08:39:58.050Z,101117.16
2019-01-02T08:42:48.435Z,101123.78
2019-01-02T08:46:07.410Z,101126.55
2019-01-02T08:49:13.704Z,101126.55
2019-01-02T08:52:26.389Z,101129.72
2019-01-02T08:55:41.616Z,101124.95
2019-01-02T08:58:48.135Z,101125.98
2019-01-02T09:02:19.424Z,101136.73
2019-01-02T09:05:35.756Z,101127.59
2019-01-02T09:09:01.009Z,101130.55
2019-01-02T09:12:16.301Z,101141.45
2019-01-02T09:15:38.194Z,101133.05
2019-01-02T09:18:44.303Z,101141.42
2019-01-02T09:21:50.124Z,101149.31
2019-01-02T09:24:57.557Z,101134.17
2019-01-02T09:27:52.788Z,101134.21
2019-01-02T09:30:47.448Z,101135.05
2019-01-02T09:33:41.339Z,101137.82
2019-01-02T09:37:14.631Z,101147.68
2019-01-02T09:40:28.681Z,101148.56
2019-01-02T09:43:34.220Z,101142.45
2019-01-02T09:46:53.958Z,101163.42
2019-01-02T09:50:00.252Z,101135.52
2019-01-02T09:53:04.889Z,101151.90
2019-01-02T09:56:00.273Z,101144.98
2019-01-02T09:59:06.375Z,101160.61
2019-01-02T10:01:47.329Z,101163.75
2019-01-02T10:04:36.908Z,101153.03
2019-01-02T10:07:52.274Z,101162.22
2019-01-02T10:11:29.592Z,101152.81
2019-01-02T10:14:37.029Z,101162.78
2019-01-02T10:17:44.153Z,101163.02
2019-01-02T10:20:43.881Z,101165.25
2019-01-02T10:23:48.658Z,101152.48
2019-01-02T10:26:44.227Z,101161.23
2019-01-02T10:29:36.942Z,101154.83
2019-01-02T10:32:44.112Z,101152.88
2019-01-02T10:35:44.788Z,101161.81
2019-01-02T10:38:52.212Z,101153.86
2019-01-02T10:41:54.648Z,101148.30
2019-01-02T10:45:01.878Z,101154.30
2019-01-02T10:48:09.001Z,101147.30
2019-01-02T10:51:16.145Z,101156.64
2019-01-02T10:54:06.483Z,101143.75
2019-01-02T10:56:59.548Z,101144.02
2019-01-02T11:00:07.248Z,101141.77
2019-01-02T11:03:14.369Z,101147.03
2019-01-02T11:06:22.480Z,101150.06
2019-01-02T11:09:16.243Z,101139.58
2019-01-02T11:12:23.419Z,101138.61
2019-01-02T11:15:30.544Z,101143.84
2019-01-02T11:18:37.723Z,101147.03
2019-01-02T11:21:44.854Z,101148.66
2019-01-02T11:28:04.936Z,101141.53
2019-01-02T11:31:08.096Z,101124.56
2019-01-02T11:34:11.781Z,101127.84
2019-01-02T11:37:19.177Z,101131.31
2019-01-02T11:40:26.307Z,101124.95
2019-01-02T11:43:33.814Z,101128.23
2019-01-02T11:46:02.500Z,101121.81
2019-01-02T11:48:31.535Z,101108.91
2019-01-02T11:51:19.416Z,101116.27
2019-01-02T11:54:07.360Z,101113.82
2019-01-02T11:56:36.038Z,101118.77
2019-01-02T11:59:04.790Z,101108.33
2019-01-02T12:01:33.491Z,101113.45
2019-01-02T12:04:02.195Z,101106.15
2019-01-02T12:09:47.073Z,101117.81
2019-01-02T12:12:16.195Z,101111.48
2019-01-02T12:14:44.885Z,101109.16
2019-01-02T12:17:26.347Z,101113.27
2019-01-02T12:25:42.623Z,101111.58
2019-01-02T12:28:11.310Z,101110.55
2019-01-02T12:30:59.349Z,101112.82
2019-01-02T12:33:28.112Z,101108.52
2019-01-02T12:35:56.803Z,101104.59
2019-01-02T12:38:25.500Z,101110.06
2019-01-02T12:40:54.175Z,101109.33
2019-01-02T12:43:22.936Z,101113.83
2019-01-02T12:45:51.625Z,101109.95
2019-01-02T12:48:20.313Z,101108.47
2019-01-02T12:53:23.676Z,101106.11
2019-01-02T12:56:11.708Z,101111.91
2019-01-02T12:58:59.726Z,101118.09
2019-01-02T13:02:06.902Z,101112.54
2019-01-02T13:04:59.400Z,101120.20
2019-01-02T13:08:06.529Z,101125.91
2019-01-02T13:11:13.665Z,101127.19
2019-01-02T13:17:06.951Z,101128.84
2019-01-02T13:20:14.074Z,101129.13
2019-01-02T13:23:21.198Z,101132.89
2019-01-02T13:54:49.433Z,100998.81
2019-01-02T13:57:18.128Z,101009.86
2019-01-02T13:59:47.195Z,101006.92
2019-01-02T14:02:15.875Z,101005.38
2019-01-02T14:04:46.268Z,101008.84
2019-01-02T14:07:14.970Z,101010.18
2019-01-02T14:09:43.647Z,101006.75
2019-01-02T14:12:12.361Z,101007.30
2019-01-02T14:14:41.079Z,101015.83
2019-01-02T14:17:10.610Z,101015.10
2019-01-02T14:19:39.308Z,101018.21
2019-01-02T14:22:08.064Z,101029.50
2019-01-02T14:24:37.432Z,101032.78
2019-01-02T14:27:06.195Z,101034.26
2019-01-02T14:29:34.876Z,101033.13
2019-01-02T14:32:03.586Z,101039.54
2019-01-02T14:34:32.274Z,101043.69
2019-01-02T14:37:02.389Z,101041.20
2019-01-02T14:39:31.149Z,101050.41
2019-01-02T14:42:00.283Z,101044.16
2019-01-02T14:44:28.976Z,101052.92
2019-01-02T14:46:57.661Z,101044.36
2019-01-02T14:49:26.365Z,101048.59
2019-01-02T14:51:55.256Z,101050.63
2019-01-02T14:54:24.018Z,101061.17
2019-01-02T14:56:52.780Z,101062.09
2019-01-02T14:59:21.475Z,101062.41
2019-01-02T15:01:50.180Z,101060.00
2019-01-02T15:04:19.210Z,101057.01
2019-01-02T15:06:48.251Z,101068.52
2019-01-02T15:09:16.967Z,101069.23
2019-01-02T15:11:45.633Z,101069.33
2019-01-02T15:14:14.708Z,101066.00
2019-01-02T15:16:44.661Z,101067.01
2019-01-02T15:19:13.649Z,101068.73
2019-01-02T15:21:42.341Z,101071.80
2019-01-02T15:24:11.311Z,101073.16
2019-01-02T15:26:40.390Z,101076.23
2019-01-02T15:29:09.114Z,101072.80
2019-01-02T15:31:37.963Z,101075.38
2019-01-02T15:34:06.652Z,101078.70
2019-01-02T15:36:35.337Z,101079.77
2019-01-02T15:39:06.578Z,101081.69
2019-01-02T15:41:35.272Z,101085.78
2019-01-02T15:44:03.960Z,101080.68
2019-01-02T15:46:32.663Z,101080.28
2019-01-02T15:49:01.352Z,101082.94
2019-01-02T15:51:30.054Z,101082.23
2019-01-02T15:53:58.740Z,101086.73
2019-01-02T15:56:27.553Z,101088.02
2019-01-02T15:58:56.246Z,101090.66
2019-01-02T16:01:24.976Z,101092.28
2019-01-02T16:03:54.033Z,101097.02
2019-01-02T16:06:22.798Z,101093.94
2019-01-02T16:08:51.473Z,101097.98
2019-01-02T16:11:20.524Z,101100.86
2019-01-02T16:13:49.213Z,101109.77
2019-01-02T16:16:18.297Z,101109.30
2019-01-02T16:18:46.982Z,101109.89
2019-01-02T16:21:15.673Z,101119.34
2019-01-02T16:23:44.381Z,101125.27
2019-01-02T16:26:13.138Z,101118.91
2019-01-02T16:28:41.831Z,101124.23
2019-01-02T16:31:11.058Z,101118.78
2019-01-02T16:33:39.775Z,101114.97
2019-01-02T16:36:08.463Z,101124.14
2019-01-02T16:38:37.524Z,101125.94
2019-01-02T16:41:06.222Z,101128.47
2019-01-02T16:43:35.647Z,101125.50
2019-01-02T16:46:04.407Z,101134.31
2019-01-02T16:48:33.162Z,101135.81
2019-01-02T16:51:01.843Z,101143.44
2019-01-02T16:53:30.539Z,101139.09
2019-01-02T16:55:59.312Z,101145.98
2019-01-02T16:58:27.997Z,101151.23
2019-01-02T17:00:56.753Z,101148.84
2019-01-02T17:03:25.447Z,101159.82
2019-01-02T17:05:54.144Z,101153.81
2019-01-02T17:08:23.220Z,101150.03
2019-01-02T17:10:51.988Z,101143.16
2019-01-02T17:13:20.691Z,101142.74
2019-01-02T17:15:49.426Z,101145.06
2019-01-02T17:18:18.182Z,101149.97
2019-01-02T17:20:47.316Z,101149.97
2019-01-02T17:23:16.014Z,101152.59
2019-01-02T17:25:45.006Z,101139.52
2019-01-02T17:28:13.758Z,101144.31
2019-01-02T17:30:42.451Z,101147.33
2019-01-02T17:33:11.145Z,101149.99
2019-01-02T17:35:39.886Z,101151.70
2019-01-02T17:38:08.587Z,101155.55
2019-01-02T17:40:37.275Z,101156.47
2019-01-02T17:43:05.966Z,101155.63
2019-01-02T17:45:34.661Z,101160.48
2019-01-02T17:48:03.707Z,101165.33
2019-01-02T17:50:32.675Z,101164.91
2019-01-02T17:53:01.366Z,101164.43
2019-01-02T17:55:30.050Z,101167.91
2019-01-02T17:57:58.792Z,101168.22
2019-01-02T18:00:27.558Z,101178.66
2019-01-02T18:02:56.267Z,101178.97
2019-01-02T18:05:24.963Z,101186.47
2019-01-02T18:07:54.072Z,101187.00
2019-01-02T18:10:22.840Z,101178.73
2019-01-02T18:12:51.599Z,101183.52
2019-01-02T18:15:20.647Z,101187.87
2019-01-02T18:17:49.412Z,101179.66
2019-01-02T18:20:18.430Z,101175.00
2019-01-02T18:22:47.258Z,101181.14
2019-01-02T18:25:16.225Z,101182.05
2019-01-02T18:27:45.239Z,101187.30
2019-01-02T18:30:14.096Z,101182.52
2019-01-02T18:32:42.789Z,101183.36
2019-01-02T18:35:11.565Z,101188.15
2019-01-02T18:37:40.340Z,101190.31
2019-01-02T18:40:09.451Z,101194.69
2019-01-02T18:42:38.134Z,101191.66
2019-01-02T18:45:07.007Z,101203.00
2019-01-02T18:47:35.785Z,101203.00
2019-01-02T18:50:05.460Z,101200.39
2019-01-02T18:52:34.722Z,101213.50
2019-01-02T18:55:03.405Z,101214.80
2019-01-02T18:57:32.134Z,101216.55
2019-01-02T19:00:06.082Z,101213.93
2019-01-02T19:02:31.253Z,101212.63
2019-01-02T19:04:59.978Z,101217.41
2019-01-02T19:07:28.705Z,101215.19
2019-01-02T19:09:57.390Z,101218.66
2019-01-02T19:12:26.078Z,101224.29
2019-01-02T19:14:54.837Z,101221.67
2019-01-02T19:17:23.573Z,101214.66
2019-01-02T19:19:52.328Z,101221.64
2019-01-02T19:22:21.309Z,101219.52
2019-01-02T19:24:50.059Z,101220.81
2019-01-02T19:27:18.743Z,101220.86
2019-01-02T19:29:47.761Z,101227.33
2019-01-02T19:32:16.564Z,101222.00
2019-01-02T19:34:45.260Z,101225.46
2019-01-02T19:37:14.252Z,101223.63
2019-01-02T19:39:42.945Z,101220.09
2019-01-02T19:42:12.009Z,101225.73
2019-01-02T19:44:41.107Z,101230.06
2019-01-02T19:47:09.886Z,101228.80
2019-01-02T19:49:38.581Z,101230.53
2019-01-02T19:52:07.259Z,101227.88
2019-01-02T19:54:36.659Z,101231.38
2019-01-02T19:57:04.895Z,101237.91
2019-01-02T19:59:33.931Z,101240.09
2019-01-02T20:02:02.695Z,101238.45
2019-01-02T20:04:31.382Z,101243.08
2019-01-02T20:07:00.461Z,101241.72
2019-01-02T20:09:29.141Z,101244.33
2019-01-02T20:11:57.914Z,101246.48
2019-01-02T20:14:26.623Z,101246.48
2019-01-02T20:16:55.308Z,101247.31
2019-01-02T20:19:24.332Z,101243.34
2019-01-02T20:21:53.039Z,101242.04
2019-01-02T20:24:21.742Z,101239.53
2019-01-02T20:26:55.397Z,101244.59
2019-01-02T20:29:20.940Z,101238.00
2019-01-02T20:31:50.699Z,101232.84
2019-01-02T20:34:19.395Z,101230.86
2019-01-02T20:36:48.416Z,101230.40
2019-01-02T20:39:17.226Z,101229.09
2019-01-02T20:41:45.869Z,101218.25
2019-01-02T20:44:14.716Z,101218.25
2019-01-02T20:46:43.473Z,101224.72
2019-01-02T20:49:12.172Z,101228.70
2019-01-02T20:51:40.852Z,101223.06
2019-01-02T20:54:09.549Z,101223.06
2019-01-02T20:56:38.865Z,101218.87
2019-01-02T20:59:07.566Z,101221.53
2019-01-02T21:01:36.336Z,101216.14
2019-01-02T21:04:05.029Z,101216.14
2019-01-02T21:06:33.806Z,101230.02
2019-01-02T21:09:03.579Z,101226.94
2019-01-02T21:11:32.269Z,101226.94
2019-01-02T21:14:00.960Z,101223.89
2019-01-02T21:16:29.706Z,101223.70
2019-01-02T21:18:58.740Z,101223.70
2019-01-02T21:21:28.046Z,101232.34
2019-01-02T21:23:56.728Z,101236.24
2019-01-02T21:26:25.421Z,101237.06
2019-01-02T21:28:54.140Z,101241.45
2019-01-02T21:31:22.938Z,101243.66
2019-01-02T21:33:51.600Z,101238.70
2019-01-02T21:36:20.624Z,101239.00
2019-01-02T21:38:49.384Z,101232.48
2019-01-02T21:41:18.444Z,101243.84
2019-01-02T21:43:47.489Z,101244.34
2019-01-02T21:46:16.259Z,101247.34
2019-01-02T21:48:45.016Z,101237.73
2019-01-02T21:51:13.712Z,101238.70
2019-01-02T21:53:42.483Z,101231.68
2019-01-02T21:56:11.556Z,101239.50
2019-01-02T21:58:40.272Z,101230.63
2019-01-02T22:01:09.113Z,101237.55
2019-01-02T22:03:37.845Z,101234.06
2019-01-02T22:06:06.615Z,101234.97
2019-01-02T22:08:35.324Z,101244.38
2019-01-02T22:11:04.486Z,101237.97
2019-01-02T22:13:33.183Z,101239.25
2019-01-02T22:16:01.881Z,101243.50
2019-01-02T22:18:30.970Z,101245.55
2019-01-02T22:20:59.753Z,101245.38
2019-01-02T22:23:28.450Z,101231.70
2019-01-02T22:25:57.537Z,101231.27
2019-01-02T22:28:26.300Z,101238.62
2019-01-02T22:30:55.103Z,101243.07
2019-01-02T22:33:23.884Z,101233.48
2019-01-02T22:35:52.579Z,101239.27
2019-01-02T22:38:21.279Z,101238.34
2019-01-02T22:40:50.068Z,101237.58
2019-01-02T22:43:18.778Z,101236.01
2019-01-02T22:45:47.470Z,101245.36
2019-01-02T22:48:16.290Z,101241.73
2019-01-02T22:50:45.095Z,101246.95
2019-01-02T22:53:14.184Z,101248.05
2019-01-02T22:55:42.887Z,101246.74
2019-01-02T22:58:11.673Z,101254.48
2019-01-02T23:01:15.183Z,101254.81
2019-01-02T23:04:06.142Z,101249.14
2019-01-02T23:07:06.499Z,101257.45
2019-01-02T23:10:06.790Z,101257.68
2019-01-02T23:12:55.134Z,101266.63
2019-01-02T23:15:45.861Z,101266.68
2019-01-02T23:18:32.551Z,101270.84
2019-01-02T23:21:24.503Z,101267.01
2019-01-02T23:24:11.213Z,101277.36
2019-01-02T23:27:13.144Z,101279.85
2019-01-02T23:30:01.780Z,101278.44
2019-01-02T23:32:49.438Z,101289.28
2019-01-02T23:35:37.256Z,101289.59
2019-01-02T23:38:23.998Z,101298.36
2019-01-02T23:41:18.121Z,101299.25
2019-01-02T23:44:09.222Z,101298.06
2019-01-02T23:46:56.472Z,101303.20
2019-01-02T23:49:57.313Z,101301.31
2019-01-02T23:52:43.986Z,101304.76
2019-01-02T23:55:28.878Z,101309.09
2019-01-02T23:58:16.914Z,101310.12
